createdAt,value
2017-03-27T00:00:08.888Z,49.87
2017-03-27T00:00:49.386Z,50.07
2017-03-27T00:01:29.898Z,50.26
2017-03-27T00:02:10.387Z,50.35
2017-03-27T00:02:50.896Z,50.07
2017-03-27T00:03:31.395Z,49.97
2017-03-27T00:04:11.899Z,50.45
2017-03-27T00:04:52.369Z,49.87
2017-03-27T00:05:32.849Z,49.78
2017-03-27T00:06:13.303Z,50.16
2017-03-27T00:06:53.782Z,49.97
2017-03-27T00:07:34.377Z,50.35
2017-03-27T00:08:14.886Z,50.26
2017-03-27T00:08:55.405Z,49.97
2017-03-27T00:09:35.927Z,49.97
2017-03-27T00:10:16.421Z,50.16
2017-03-27T00:10:56.861Z,50.35
2017-03-27T00:11:37.387Z,50.07
2017-03-27T00:12:17.861Z,50.54
2017-03-27T00:12:58.368Z,50.16
2017-03-27T00:13:39.116Z,50.07
2017-03-27T00:14:19.595Z,50.26
2017-03-27T00:15:00.109Z,50.23
2017-03-27T00:15:40.746Z,50.13
2017-03-27T00:16:21.256Z,50.16
2017-03-27T00:17:01.745Z,49.95
2017-03-27T00:17:42.387Z,50.16
2017-03-27T00:18:22.959Z,50.42
2017-03-27T00:19:03.414Z,50.73
2017-03-27T00:19:43.849Z,50.73
2017-03-27T00:20:24.315Z,50.71
2017-03-27T00:21:04.771Z,50.52
2017-03-27T00:21:45.232Z,50.99
2017-03-27T00:22:25.792Z,51.37
2017-03-27T00:23:06.249Z,51.18
2017-03-27T00:23:46.824Z,51.37
2017-03-27T00:24:27.239Z,51.18
2017-03-27T00:25:07.767Z,51.66
2017-03-27T00:25:48.331Z,51.12
2017-03-27T00:26:28.956Z,51.12
2017-03-27T00:27:09.427Z,50.99
2017-03-27T00:27:49.971Z,51.21
2017-03-27T00:28:30.460Z,51.21
2017-03-27T00:29:10.969Z,51.21
2017-03-27T00:29:51.524Z,50.92
2017-03-27T00:30:31.960Z,50.9
2017-03-27T00:31:12.555Z,50.8
2017-03-27T00:31:53.082Z,51.18
2017-03-27T00:32:33.748Z,51.56
2017-03-27T00:33:14.187Z,51.37
2017-03-27T00:33:54.731Z,51.28
2017-03-27T00:34:35.290Z,51.37
2017-03-27T00:35:15.857Z,51.95
2017-03-27T00:35:56.318Z,51.95
2017-03-27T00:36:36.792Z,51.47
2017-03-27T00:37:17.274Z,51.59
2017-03-27T00:37:57.771Z,51.5
2017-03-27T00:38:38.307Z,51.4
2017-03-27T00:39:18.797Z,51.59
2017-03-27T00:39:59.287Z,51.4
2017-03-27T00:40:39.860Z,51.68
2017-03-27T00:41:20.338Z,51.21
2017-03-27T00:42:00.827Z,51.31
2017-03-27T00:42:41.307Z,51.59
2017-03-27T00:43:21.814Z,51.31
2017-03-27T00:44:02.231Z,51.21
2017-03-27T00:44:42.777Z,51.02
2017-03-27T00:45:23.243Z,51.28
2017-03-27T00:46:03.761Z,51.28
2017-03-27T00:46:44.268Z,51.47
2017-03-27T00:47:24.844Z,51.31
2017-03-27T00:48:05.522Z,51.31
2017-03-27T00:48:45.998Z,51.18
2017-03-27T00:49:26.475Z,51.18
2017-03-27T00:50:06.971Z,51.37
2017-03-27T00:50:47.456Z,51.28
2017-03-27T00:51:27.987Z,52.04
2017-03-27T00:52:08.454Z,51.95
2017-03-27T00:52:49.011Z,51.95
2017-03-27T00:53:29.454Z,51.95
2017-03-27T00:54:09.908Z,51.85
2017-03-27T00:54:50.434Z,51.85
2017-03-27T00:55:30.895Z,51.95
2017-03-27T00:56:11.401Z,52.8
2017-03-27T00:56:51.890Z,52.04
2017-03-27T00:57:32.339Z,52.01
2017-03-27T00:58:12.867Z,52.42
2017-03-27T00:58:53.349Z,52.52
2017-03-27T00:59:33.852Z,52.42
2017-03-27T01:00:14.343Z,52.52
2017-03-27T01:00:54.822Z,52.68
2017-03-27T01:01:35.319Z,52.42
2017-03-27T01:02:15.909Z,52.52
2017-03-27T01:02:56.378Z,52.14
2017-03-27T01:03:36.893Z,52.42
2017-03-27T01:04:17.380Z,52.33
2017-03-27T01:04:57.944Z,52.61
2017-03-27T01:05:38.343Z,52.52
2017-03-27T01:06:18.954Z,51.66
2017-03-27T01:06:59.464Z,51.76
2017-03-27T01:07:39.926Z,51.66
2017-03-27T01:08:20.401Z,51.66
2017-03-27T01:09:00.914Z,52.33
2017-03-27T01:09:41.483Z,51.95
2017-03-27T01:23:45.266Z,52.14
2017-03-27T01:24:27.005Z,52.52
2017-03-27T01:25:07.482Z,52.14
2017-03-27T01:25:48.009Z,52.14
2017-03-27T01:26:28.475Z,52.14
2017-03-27T01:27:08.977Z,52.42
2017-03-27T01:27:49.454Z,52.97
2017-03-27T01:28:29.948Z,52.8
2017-03-27T01:29:10.470Z,53
2017-03-27T01:29:50.919Z,52.9
2017-03-27T01:30:31.384Z,52.42
2017-03-27T01:31:11.937Z,52.8
2017-03-27T01:31:52.560Z,52.9
2017-03-27T01:32:33.213Z,52.33
2017-03-27T01:33:13.708Z,52.52
2017-03-27T01:33:54.206Z,52.33
2017-03-27T01:34:34.701Z,52.42
2017-03-27T01:35:15.201Z,52.52
2017-03-27T01:35:55.645Z,52.33
2017-03-27T01:36:36.114Z,51.76
2017-03-27T01:37:16.631Z,52.11
2017-03-27T01:37:57.174Z,52.49
2017-03-27T01:38:37.725Z,52.49
2017-03-27T01:39:18.234Z,52.11
2017-03-27T01:39:58.744Z,52.59
2017-03-27T01:40:39.200Z,52.59
2017-03-27T01:41:19.737Z,52.52
2017-03-27T01:42:00.195Z,52.61
2017-03-27T01:42:40.683Z,52.9
2017-03-27T01:43:21.226Z,52.23
2017-03-27T01:44:01.710Z,52.8
2017-03-27T01:44:42.115Z,52.61
2017-03-27T01:45:22.649Z,52.49
2017-03-27T01:46:03.154Z,52.71
2017-03-27T01:46:43.683Z,52.42
2017-03-27T01:47:24.139Z,52.78
2017-03-27T01:48:04.705Z,52.52
2017-03-27T01:48:45.156Z,52.42
2017-03-27T01:49:25.670Z,52.61
2017-03-27T01:50:06.192Z,52.9
2017-03-27T01:50:46.629Z,52.14
2017-03-27T01:51:27.107Z,52.01
2017-03-27T01:52:07.611Z,52.4
2017-03-27T01:52:48.093Z,52.01
2017-03-27T01:53:28.568Z,52.68
2017-03-27T01:54:09.066Z,52.9
2017-03-27T01:54:49.552Z,52.97
2017-03-27T01:55:30.047Z,53.28
2017-03-27T01:56:10.530Z,52.59
2017-03-27T01:56:51.062Z,52.3
2017-03-27T01:57:31.550Z,52.3
2017-03-27T01:58:12.066Z,52.3
2017-03-27T01:58:52.554Z,52.49
2017-03-27T01:59:33.047Z,52.49
2017-03-27T02:00:13.482Z,52.49
2017-03-27T02:00:53.978Z,52.11
2017-03-27T02:01:34.460Z,51.73
2017-03-27T02:02:14.944Z,51.82
2017-03-27T02:02:55.503Z,51.82
2017-03-27T02:03:35.991Z,52.11
2017-03-27T02:04:16.533Z,52.11
2017-03-27T02:04:57.004Z,52.11
2017-03-27T02:05:37.501Z,52.11
2017-03-27T02:06:18.047Z,52.01
2017-03-27T02:06:58.548Z,51.64
2017-03-27T02:07:38.975Z,51.92
2017-03-27T02:08:19.424Z,51.54
2017-03-27T02:08:59.951Z,51.82
2017-03-27T02:09:40.396Z,52.4
2017-03-27T02:10:20.974Z,52.3
2017-03-27T02:11:01.432Z,52.01
2017-03-27T02:11:41.885Z,52.11
2017-03-27T02:12:22.347Z,51.82
2017-03-27T02:13:02.871Z,51.73
2017-03-27T02:13:43.329Z,51.82
2017-03-27T02:14:24.064Z,51.66
2017-03-27T02:15:04.508Z,51.82
2017-03-27T02:15:44.924Z,51.73
2017-03-27T02:16:25.467Z,51.64
2017-03-27T02:17:05.996Z,51.35
2017-03-27T02:17:46.443Z,51.25
2017-03-27T02:18:26.921Z,51.06
2017-03-27T02:19:07.413Z,51.16
2017-03-27T02:19:47.881Z,51.54
2017-03-27T02:20:28.387Z,51.35
2017-03-27T02:21:08.883Z,50.97
2017-03-27T02:21:49.399Z,50.78
2017-03-27T02:22:29.967Z,50.97
2017-03-27T02:23:10.431Z,50.59
2017-03-27T02:23:50.989Z,50.78
2017-03-27T02:24:31.478Z,51.06
2017-03-27T02:25:11.965Z,50.87
2017-03-27T02:25:52.432Z,51.35
2017-03-27T02:26:32.917Z,51.35
2017-03-27T02:27:13.430Z,51.35
2017-03-27T02:27:53.925Z,51.54
2017-03-27T02:28:34.406Z,51.25
2017-03-27T02:29:14.914Z,51.45
2017-03-27T02:29:55.466Z,50.97
2017-03-27T02:30:35.912Z,50.97
2017-03-27T02:31:16.374Z,50.78
2017-03-27T02:31:56.876Z,51.54
2017-03-27T02:32:37.415Z,51.56
2017-03-27T02:33:17.927Z,50.78
2017-03-27T02:33:58.552Z,50.59
2017-03-27T02:34:38.938Z,50.97
2017-03-27T02:35:19.392Z,50.78
2017-03-27T02:35:59.896Z,51.35
2017-03-27T02:36:40.325Z,51.35
2017-03-27T02:37:20.869Z,51.25
2017-03-27T02:38:01.367Z,51.25
2017-03-27T02:38:41.870Z,51.25
2017-03-27T02:39:22.408Z,51.16
2017-03-27T02:40:02.912Z,51.06
2017-03-27T02:40:43.383Z,51.64
2017-03-27T02:41:23.874Z,51.32
2017-03-27T02:42:04.378Z,52.09
2017-03-27T02:42:44.828Z,51.89
2017-03-27T02:43:25.449Z,51.89
2017-03-27T02:44:05.916Z,51.99
2017-03-27T02:44:46.393Z,51.04
2017-03-27T02:45:26.906Z,51.42
2017-03-27T02:46:07.341Z,51.89
2017-03-27T02:46:47.836Z,51.45
2017-03-27T02:47:28.370Z,51.32
2017-03-27T02:48:08.919Z,51.32
2017-03-27T02:48:49.363Z,51.32
2017-03-27T02:49:29.889Z,51.35
2017-03-27T02:50:10.367Z,51.35
2017-03-27T02:50:50.874Z,51.25
2017-03-27T02:51:31.351Z,51.45
2017-03-27T02:52:11.844Z,51.32
2017-03-27T02:52:52.384Z,51.35
2017-03-27T02:53:32.795Z,51.35
2017-03-27T02:54:13.302Z,51.45
2017-03-27T02:54:53.805Z,51.54
2017-03-27T02:55:34.260Z,51.06
2017-03-27T02:56:14.739Z,51.54
2017-03-27T02:56:55.337Z,51.45
2017-03-27T02:57:35.743Z,51.73
2017-03-27T02:58:16.284Z,51.45
2017-03-27T02:58:56.732Z,51.45
2017-03-27T02:59:37.280Z,51.16
2017-03-27T03:00:17.698Z,51.35
2017-03-27T03:00:58.161Z,51.35
2017-03-27T03:01:38.692Z,51.35
2017-03-27T03:02:19.179Z,51.25
2017-03-27T03:02:59.628Z,51.14
2017-03-27T03:03:40.195Z,51.23
2017-03-27T03:04:20.720Z,51.16
2017-03-27T03:05:01.156Z,51.45
2017-03-27T03:05:41.818Z,51.35
2017-03-27T03:06:22.202Z,51.45
2017-03-27T03:07:02.598Z,51.51
2017-03-27T03:07:43.150Z,52.09
2017-03-27T03:08:23.601Z,52.01
2017-03-27T03:09:04.083Z,51.35
2017-03-27T03:09:44.611Z,51.23
2017-03-27T03:10:25.079Z,51.32
2017-03-27T03:11:05.656Z,51.32
2017-03-27T03:11:46.111Z,51.23
2017-03-27T03:12:26.633Z,51.25
2017-03-27T03:13:07.141Z,51.51
2017-03-27T03:13:47.605Z,51.35
2017-03-27T03:14:28.150Z,51.92
2017-03-27T03:15:08.556Z,51.42
2017-03-27T03:15:49.014Z,51.25
2017-03-27T03:16:29.584Z,51.54
2017-03-27T03:17:10.204Z,51.25
2017-03-27T03:17:50.830Z,51.14
2017-03-27T03:18:31.259Z,51.04
2017-03-27T03:19:11.786Z,51.51
2017-03-27T03:19:52.317Z,51.51
2017-03-27T03:20:32.775Z,51.51
2017-03-27T03:21:13.252Z,51.32
2017-03-27T03:21:53.902Z,51.42
2017-03-27T03:22:34.539Z,51.23
2017-03-27T03:23:15.033Z,51.51
2017-03-27T03:23:55.498Z,51.51
2017-03-27T03:24:35.974Z,51.51
2017-03-27T03:25:16.455Z,51.14
2017-03-27T03:25:56.958Z,51.42
2017-03-27T03:26:37.384Z,51.42
2017-03-27T03:27:17.992Z,51.42
2017-03-27T03:27:58.416Z,51.32
2017-03-27T03:28:38.953Z,51.14
2017-03-27T03:29:19.471Z,51.04
2017-03-27T03:29:59.916Z,51.51
2017-03-27T03:30:40.452Z,51.51
2017-03-27T03:31:20.969Z,51.51
2017-03-27T03:32:01.439Z,51.42
2017-03-27T03:32:42.031Z,51.23
2017-03-27T03:33:22.484Z,51.32
2017-03-27T03:34:02.983Z,51.42
2017-03-27T03:34:43.409Z,51.51
2017-03-27T03:35:23.953Z,51.42
2017-03-27T03:36:04.374Z,51.23
2017-03-27T03:36:44.809Z,51.51
2017-03-27T03:37:25.409Z,51.14
2017-03-27T03:38:05.840Z,51.04
2017-03-27T03:38:46.408Z,51.14
2017-03-27T03:39:26.888Z,51.51
2017-03-27T03:40:07.340Z,51.23
2017-03-27T03:40:47.827Z,51.23
2017-03-27T03:41:28.301Z,51.14
2017-03-27T03:42:08.805Z,51.32
2017-03-27T03:42:49.313Z,51.51
2017-03-27T03:43:29.798Z,51.61
2017-03-27T03:44:10.262Z,51.14
2017-03-27T03:44:50.816Z,50.85
2017-03-27T03:45:31.292Z,50.94
2017-03-27T03:46:11.753Z,50.75
2017-03-27T03:46:52.270Z,50.66
2017-03-27T03:47:32.755Z,50.66
2017-03-27T03:48:13.232Z,50.46
2017-03-27T03:48:53.750Z,50.85
2017-03-27T03:49:34.237Z,50.46
2017-03-27T03:50:14.734Z,50.18
2017-03-27T03:50:55.238Z,50.37
2017-03-27T03:51:35.739Z,50.66
2017-03-27T03:52:16.204Z,50.18
2017-03-27T03:52:56.726Z,50.56
2017-03-27T03:53:37.216Z,50.27
2017-03-27T03:54:17.676Z,50.27
2017-03-27T03:54:58.178Z,50.37
2017-03-27T03:55:38.708Z,50.37
2017-03-27T03:56:19.163Z,49.9
2017-03-27T03:56:59.668Z,49.9
2017-03-27T03:57:40.114Z,49.99
2017-03-27T03:58:20.629Z,49.71
2017-03-27T03:59:01.088Z,49.51
2017-03-27T03:59:41.625Z,49.51
2017-03-27T04:00:22.117Z,49.9
2017-03-27T04:01:02.703Z,49.99
2017-03-27T04:01:43.123Z,49.71
2017-03-27T04:02:23.641Z,49.71
2017-03-27T04:03:04.121Z,49.77
2017-03-27T04:03:44.596Z,49.9
2017-03-27T04:04:25.091Z,50.18
2017-03-27T04:05:05.563Z,50.09
2017-03-27T04:05:46.086Z,50.09
2017-03-27T04:06:26.527Z,50.18
2017-03-27T04:07:07.062Z,49.8
2017-03-27T04:07:47.513Z,49.8
2017-03-27T04:08:28.080Z,49.9
2017-03-27T04:09:08.746Z,49.9
2017-03-27T04:09:49.233Z,50.09
2017-03-27T04:10:29.693Z,50.27
2017-03-27T04:11:10.197Z,50.85
2017-03-27T04:11:50.694Z,50.27
2017-03-27T04:12:31.297Z,50.66
2017-03-27T04:13:11.717Z,50.56
2017-03-27T04:13:52.221Z,50.46
2017-03-27T04:14:32.752Z,50.37
2017-03-27T04:15:13.321Z,50.56
2017-03-27T04:15:53.888Z,49.9
2017-03-27T04:16:34.391Z,50.46
2017-03-27T04:17:14.805Z,50.46
2017-03-27T04:17:55.349Z,50.37
2017-03-27T04:18:35.793Z,49.61
2017-03-27T04:19:16.331Z,49.99
2017-03-27T04:19:56.795Z,49.99
2017-03-27T04:20:37.255Z,49.8
2017-03-27T04:21:17.804Z,49.71
2017-03-27T04:21:58.257Z,50.18
2017-03-27T04:22:38.717Z,50.18
2017-03-27T04:23:19.230Z,50.56
2017-03-27T04:23:59.768Z,50.44
2017-03-27T04:24:40.230Z,50.46
2017-03-27T04:25:20.732Z,50.66
2017-03-27T04:26:01.262Z,50.46
2017-03-27T04:26:41.704Z,50.54
2017-03-27T04:27:22.239Z,50.44
2017-03-27T04:28:02.788Z,50.82
2017-03-27T04:28:43.278Z,50.73
2017-03-27T04:29:23.756Z,50.73
2017-03-27T04:30:04.345Z,51.1
2017-03-27T04:30:44.757Z,51.14
2017-03-27T04:31:25.299Z,50.92
2017-03-27T04:32:05.788Z,50.82
2017-03-27T04:32:46.250Z,50.73
2017-03-27T04:33:26.690Z,51.49
2017-03-27T04:34:07.150Z,51.3
2017-03-27T04:34:47.677Z,51.2
2017-03-27T04:35:28.167Z,51.49
2017-03-27T04:36:08.695Z,51.1
2017-03-27T04:36:49.149Z,51.1
2017-03-27T04:37:29.659Z,50.92
2017-03-27T04:38:10.150Z,51.1
2017-03-27T04:38:50.697Z,51.2
2017-03-27T04:39:31.158Z,51.39
2017-03-27T04:40:11.692Z,51.2
2017-03-27T04:40:52.221Z,51.01
2017-03-27T04:41:32.752Z,51.01
2017-03-27T04:42:13.224Z,50.82
2017-03-27T04:42:53.715Z,51.18
2017-03-27T04:43:34.265Z,51.37
2017-03-27T04:44:14.767Z,51.46
2017-03-27T04:44:55.239Z,51.65
2017-03-27T04:45:35.728Z,51.75
2017-03-27T04:46:16.243Z,51.75
2017-03-27T04:46:56.745Z,52.13
2017-03-27T04:47:37.293Z,51.65
2017-03-27T04:48:17.803Z,51.84
2017-03-27T04:48:58.315Z,51.46
2017-03-27T04:49:38.778Z,51.27
2017-03-27T04:50:19.259Z,51.37
2017-03-27T04:50:59.774Z,51.46
2017-03-27T04:51:40.293Z,51.75
2017-03-27T04:52:20.825Z,51.65
2017-03-27T04:53:01.356Z,51.56
2017-03-27T04:53:41.859Z,51.65
2017-03-27T04:54:22.437Z,51.56
2017-03-27T04:55:02.916Z,51.84
2017-03-27T04:55:43.389Z,51.27
2017-03-27T04:56:23.869Z,51.18
2017-03-27T04:57:04.302Z,51.37
2017-03-27T04:57:44.858Z,51.27
2017-03-27T04:58:25.362Z,51.18
2017-03-27T04:59:05.915Z,50.7
2017-03-27T04:59:46.415Z,50.6
2017-03-27T05:00:26.853Z,51.27
2017-03-27T05:01:07.374Z,51.84
2017-03-27T05:01:47.897Z,50.99
2017-03-27T05:02:28.355Z,51.27
2017-03-27T05:03:08.830Z,51.27
2017-03-27T05:03:49.468Z,51.37
2017-03-27T05:04:29.933Z,51.27
2017-03-27T05:05:10.406Z,51.27
2017-03-27T05:05:50.877Z,51.27
2017-03-27T05:06:31.437Z,51.37
2017-03-27T05:07:12.051Z,51.2
2017-03-27T05:07:52.543Z,50.82
2017-03-27T05:08:33.022Z,50.63
2017-03-27T05:09:13.820Z,50.23
2017-03-27T05:09:54.199Z,50.51
2017-03-27T05:10:34.592Z,50.79
2017-03-27T05:11:15.075Z,50.63
2017-03-27T05:11:55.683Z,50.42
2017-03-27T05:12:36.290Z,50.54
2017-03-27T05:13:16.741Z,50.54
2017-03-27T05:13:57.253Z,50.63
2017-03-27T05:14:38.097Z,50.63
2017-03-27T05:15:18.531Z,50.63
2017-03-27T05:15:58.977Z,50.44
2017-03-27T05:16:39.444Z,50.54
2017-03-27T05:17:19.963Z,50.35
2017-03-27T05:18:00.396Z,50.25
2017-03-27T05:18:41.052Z,50.32
2017-03-27T05:19:21.498Z,50.51
2017-03-27T05:20:01.924Z,50.51
2017-03-27T05:20:42.442Z,50.44
2017-03-27T05:21:23.047Z,50.79
2017-03-27T05:22:03.486Z,50.7
2017-03-27T05:22:44.005Z,50.7
2017-03-27T05:23:24.470Z,50.99
2017-03-27T05:24:04.975Z,50.51
2017-03-27T05:24:45.551Z,50.79
2017-03-27T05:25:26.206Z,50.82
2017-03-27T05:26:06.731Z,50.82
2017-03-27T05:26:47.162Z,50.44
2017-03-27T05:27:27.656Z,50.44
2017-03-27T05:28:08.159Z,50.35
2017-03-27T05:28:48.644Z,50.51
2017-03-27T05:29:29.184Z,50.79
2017-03-27T05:30:11.798Z,51.27
2017-03-27T05:30:52.314Z,51.37
2017-03-27T05:31:32.744Z,51.37
2017-03-27T05:32:13.361Z,51.93
2017-03-27T05:32:53.709Z,51.49
2017-03-27T05:33:34.196Z,51.68
2017-03-27T05:34:14.735Z,51.68
2017-03-27T05:34:55.268Z,53.01
2017-03-27T05:35:35.725Z,52.44
2017-03-27T05:36:16.236Z,51.1
2017-03-27T05:36:56.708Z,51.2
2017-03-27T05:37:37.179Z,50.82
2017-03-27T05:38:17.631Z,50.54
2017-03-27T05:38:58.204Z,50.25
2017-03-27T05:39:41.330Z,51.01
2017-03-27T05:40:21.826Z,50.35
2017-03-27T05:41:02.298Z,50.15
2017-03-27T05:41:42.851Z,50.06
2017-03-27T05:42:23.284Z,49.87
2017-03-27T05:43:04.050Z,50.35
2017-03-27T05:43:44.690Z,50.82
2017-03-27T05:44:25.170Z,50.63
2017-03-27T05:45:05.524Z,49.87
2017-03-27T05:45:46.051Z,50.35
2017-03-27T05:46:26.522Z,50.54
2017-03-27T05:47:07.002Z,50.35
2017-03-27T05:47:48.738Z,50.15
2017-03-27T05:48:29.493Z,50.06
2017-03-27T05:49:10.098Z,50.44
2017-03-27T05:49:50.621Z,51.01
2017-03-27T05:50:31.142Z,51.2
2017-03-27T05:51:11.571Z,50.35
2017-03-27T05:51:52.072Z,55.01
2017-03-27T05:52:32.575Z,60.53
2017-03-27T05:53:13.066Z,64.72
2017-03-27T05:53:53.613Z,58.34
2017-03-27T05:54:34.016Z,65.19
2017-03-27T05:55:14.582Z,66.33
2017-03-27T05:55:55.057Z,59.01
2017-03-27T05:56:35.607Z,55.58
2017-03-27T05:57:16.085Z,53.58
2017-03-27T05:57:56.504Z,52.8
2017-03-27T05:58:37.063Z,52.41
2017-03-27T05:59:17.606Z,51.84
2017-03-27T05:59:58.059Z,52.92
2017-03-27T06:00:38.632Z,52.53
2017-03-27T06:01:19.108Z,52.44
2017-03-27T06:01:59.608Z,51.87
2017-03-27T06:02:40.157Z,51.49
2017-03-27T06:03:20.628Z,51.78
2017-03-27T06:04:01.140Z,51.1
2017-03-27T06:04:41.667Z,50.82
2017-03-27T06:05:23.114Z,50.73
2017-03-27T06:06:03.543Z,50.44
2017-03-27T06:06:44.081Z,50.54
2017-03-27T06:07:24.554Z,50.44
2017-03-27T06:08:05.786Z,50.25
2017-03-27T06:08:46.226Z,50.44
2017-03-27T06:09:26.743Z,50.56
2017-03-27T06:10:07.285Z,51.04
2017-03-27T06:10:47.746Z,50.46
2017-03-27T06:11:28.265Z,51.14
2017-03-27T06:12:08.786Z,52.37
2017-03-27T06:12:49.229Z,52.66
2017-03-27T06:13:29.711Z,51.99
2017-03-27T06:14:10.245Z,51.1
2017-03-27T06:14:50.754Z,50.63
2017-03-27T06:15:31.201Z,50.44
2017-03-27T06:16:11.704Z,50.06
2017-03-27T06:16:52.156Z,50.06
2017-03-27T06:17:32.813Z,50.35
2017-03-27T06:18:13.261Z,50.63
2017-03-27T06:18:53.788Z,50.92
2017-03-27T06:19:34.323Z,51.68
2017-03-27T06:21:28.828Z,51.68
2017-03-27T06:23:10.290Z,50.54
2017-03-27T06:23:51.228Z,50.82
2017-03-27T06:24:54.400Z,52.53
2017-03-27T06:25:31.410Z,56.24
2017-03-27T06:26:12.004Z,55.1
2017-03-27T06:26:52.463Z,63.29
2017-03-27T06:27:33.037Z,85.08
2017-03-27T06:28:13.479Z,83.36
2017-03-27T06:28:53.937Z,87.84
2017-03-27T06:29:34.497Z,88.31
2017-03-27T06:30:15.122Z,92.36
2017-03-27T06:30:55.956Z,73.74
2017-03-27T06:31:37.115Z,64.28
2017-03-27T06:32:17.103Z,67.35
2017-03-27T06:32:57.588Z,60.49
2017-03-27T06:33:38.106Z,55.32
2017-03-27T06:34:18.638Z,52.75
2017-03-27T06:34:59.063Z,51.89
2017-03-27T06:35:39.517Z,51.2
2017-03-27T06:36:20.263Z,51.2
2017-03-27T06:37:00.874Z,51.39
2017-03-27T06:37:41.331Z,57.29
2017-03-27T06:38:22.012Z,76.56
2017-03-27T06:39:02.626Z,80.65
2017-03-27T06:39:43.234Z,78.17
2017-03-27T06:40:23.991Z,77.98
2017-03-27T06:41:04.303Z,81.93
2017-03-27T06:41:44.852Z,70.65
2017-03-27T06:42:25.337Z,67.32
2017-03-27T06:43:05.815Z,69.6
2017-03-27T06:43:46.395Z,62.94
2017-03-27T06:44:26.909Z,59.7
2017-03-27T06:45:07.493Z,72.17
2017-03-27T06:45:48.020Z,67.22
2017-03-27T06:46:28.609Z,60.56
2017-03-27T06:47:09.266Z,57.13
2017-03-27T06:47:49.844Z,67.32
2017-03-27T06:48:30.303Z,62.56
2017-03-27T06:49:10.768Z,56.75
2017-03-27T06:49:51.434Z,53.89
2017-03-27T06:50:31.866Z,51.99
2017-03-27T06:51:12.379Z,51.87
2017-03-27T06:51:52.904Z,51.68
2017-03-27T06:52:33.500Z,51.42
2017-03-27T06:53:14.272Z,51.1
2017-03-27T06:53:55.102Z,51.49
2017-03-27T06:54:35.727Z,51.3
2017-03-27T06:55:16.213Z,51.39
2017-03-27T06:55:56.767Z,52.06
2017-03-27T06:56:37.174Z,52.09
2017-03-27T06:57:17.792Z,51.04
2017-03-27T06:57:58.212Z,50.66
2017-03-27T06:58:38.681Z,51.32
2017-03-27T06:59:19.248Z,50.66
2017-03-27T06:59:59.718Z,50.85
2017-03-27T07:00:40.195Z,50.37
2017-03-27T07:01:20.655Z,51.04
2017-03-27T07:02:04.540Z,51.32
2017-03-27T07:02:45.575Z,49.99
2017-03-27T07:03:26.051Z,49.71
2017-03-27T07:04:06.603Z,50.18
2017-03-27T07:04:47.164Z,50.18
2017-03-27T07:05:27.781Z,51.04
2017-03-27T07:06:08.421Z,50.37
2017-03-27T07:06:49.125Z,52.11
2017-03-27T07:07:29.738Z,53.25
2017-03-27T07:08:10.337Z,52.8
2017-03-27T07:08:50.810Z,51.76
2017-03-27T07:09:31.411Z,50.63
2017-03-27T07:10:11.847Z,49.78
2017-03-27T07:10:52.379Z,50.92
2017-03-27T07:11:32.986Z,56.55
2017-03-27T07:12:13.459Z,67.04
2017-03-27T07:12:53.927Z,73.47
2017-03-27T07:13:34.971Z,67.8
2017-03-27T07:14:15.779Z,79.67
2017-03-27T07:14:56.338Z,84.25
2017-03-27T07:15:36.849Z,74.23
2017-03-27T07:16:17.268Z,61.16
2017-03-27T07:16:57.777Z,56.96
2017-03-27T07:17:38.224Z,63.64
2017-03-27T07:18:18.746Z,54.19
2017-03-27T07:18:59.193Z,56.38
2017-03-27T07:19:39.719Z,72.93
2017-03-27T07:20:20.285Z,69.46
2017-03-27T07:21:00.838Z,67.83
2017-03-27T07:21:41.255Z,65.45
2017-03-27T07:22:21.720Z,54
2017-03-27T07:23:02.172Z,47.97
2017-03-27T07:23:42.730Z,49.4
2017-03-27T07:24:23.209Z,48.57
2017-03-27T07:25:03.977Z,47.2
2017-03-27T07:25:44.521Z,45.68
2017-03-27T07:26:25.051Z,45.94
2017-03-27T07:27:05.598Z,48.23
2017-03-27T07:27:46.104Z,52.71
2017-03-27T07:28:26.551Z,58.65
2017-03-27T07:29:07.100Z,76.01
2017-03-27T07:29:47.640Z,59.03
2017-03-27T07:30:28.188Z,53.97
2017-03-27T07:31:08.668Z,67.61
2017-03-27T07:31:49.241Z,62.27
2017-03-27T07:32:29.825Z,61.54
2017-03-27T07:33:10.341Z,55.34
2017-03-27T07:33:50.788Z,60.02
2017-03-27T07:34:31.315Z,62.59
2017-03-27T07:35:11.867Z,71.94
2017-03-27T07:35:52.403Z,64.78
2017-03-27T07:36:33.083Z,57.34
2017-03-27T07:37:13.498Z,57.82
2017-03-27T07:37:54.219Z,51.12
2017-03-27T07:38:34.846Z,48.07
2017-03-27T07:39:15.334Z,46.73
2017-03-27T07:39:55.840Z,47.11
2017-03-27T07:40:36.305Z,48.07
2017-03-27T07:41:16.778Z,46.73
2017-03-27T07:41:57.256Z,46.44
2017-03-27T07:42:37.758Z,46.82
2017-03-27T07:43:18.271Z,46.34
2017-03-27T07:43:58.764Z,45.87
2017-03-27T07:44:39.274Z,46.25
2017-03-27T07:45:19.665Z,46.63
2017-03-27T07:46:00.200Z,47.11
2017-03-27T07:46:40.684Z,45.68
2017-03-27T07:47:21.250Z,45.97
2017-03-27T07:48:01.644Z,45.56
2017-03-27T07:48:42.139Z,47.08
2017-03-27T07:49:22.767Z,47.18
2017-03-27T07:50:03.350Z,46.8
2017-03-27T07:50:43.991Z,47.87
2017-03-27T07:51:24.581Z,48.44
2017-03-27T07:52:05.150Z,47.97
2017-03-27T07:52:45.584Z,47.11
2017-03-27T07:53:26.104Z,46.54
2017-03-27T07:54:06.554Z,45.97
2017-03-27T07:54:47.237Z,45.84
2017-03-27T07:55:27.798Z,46.42
2017-03-27T07:56:08.261Z,47.18
2017-03-27T07:56:48.754Z,47.08
2017-03-27T07:57:29.241Z,59.89
2017-03-27T07:58:09.858Z,72.51
2017-03-27T07:58:50.333Z,82.43
2017-03-27T07:59:30.812Z,74.71
2017-03-27T08:00:11.318Z,74.74
2017-03-27T08:00:51.824Z,72.71
2017-03-27T08:01:32.331Z,66.98
2017-03-27T08:02:12.887Z,57.34
2017-03-27T08:02:53.437Z,62.4
2017-03-27T08:03:33.997Z,74.17
2017-03-27T08:04:14.518Z,57.43
2017-03-27T08:04:55.156Z,49.99
2017-03-27T08:05:35.542Z,47.89
2017-03-27T08:06:15.983Z,47.8
2017-03-27T08:06:56.580Z,46.06
2017-03-27T08:07:36.965Z,44.92
2017-03-27T08:08:17.453Z,44.42
2017-03-27T08:08:58.036Z,44.44
2017-03-27T08:09:38.566Z,44.92
2017-03-27T08:10:18.981Z,54.93
2017-03-27T08:10:59.473Z,53.97
2017-03-27T08:11:40.010Z,52.16
2017-03-27T08:12:20.478Z,49.59
2017-03-27T08:13:01.123Z,52.16
2017-03-27T08:13:41.607Z,47.97
2017-03-27T08:14:22.052Z,48.35
2017-03-27T08:15:02.576Z,46.82
2017-03-27T08:15:43.222Z,46.15
2017-03-27T08:16:23.718Z,47.3
2017-03-27T08:17:04.314Z,61.04
2017-03-27T08:17:44.934Z,62.3
2017-03-27T08:18:25.359Z,73.66
2017-03-27T08:19:05.880Z,58.77
2017-03-27T08:19:46.379Z,55.15
2017-03-27T08:20:26.942Z,68.92
2017-03-27T08:21:07.534Z,55.91
2017-03-27T08:21:47.860Z,68.26
2017-03-27T08:22:28.317Z,59.06
2017-03-27T08:23:09.946Z,51.64
2017-03-27T08:23:49.557Z,46.94
2017-03-27T08:24:29.992Z,44.27
2017-03-27T08:25:10.547Z,43.39
2017-03-27T08:25:51.101Z,44.37
2017-03-27T08:26:31.534Z,45.03
2017-03-27T08:27:12.129Z,44.08
2017-03-27T08:30:18.484Z,43.01
2017-03-27T08:30:59.079Z,44.34
2017-03-27T08:31:39.762Z,43.77
2017-03-27T08:32:20.480Z,44.65
2017-03-27T08:33:00.947Z,44.17
2017-03-27T08:33:41.517Z,54.1
2017-03-27T08:34:23.233Z,49.99
2017-03-27T08:35:03.802Z,60.58
2017-03-27T08:35:44.304Z,55.08
2017-03-27T08:36:24.749Z,51.26
2017-03-27T08:37:05.293Z,48.94
2017-03-27T08:37:45.746Z,48.57
2017-03-27T08:38:26.194Z,52.09
2017-03-27T08:39:06.768Z,66.44
2017-03-27T08:39:47.235Z,62.05
2017-03-27T08:40:27.671Z,49.93
2017-03-27T08:41:08.214Z,45.53
2017-03-27T08:41:48.718Z,46.11
2017-03-27T08:42:29.280Z,45.82
2017-03-27T08:43:09.761Z,44.2
2017-03-27T08:43:50.348Z,42.48
2017-03-27T08:44:30.803Z,41.71
2017-03-27T08:45:11.403Z,43.24
2017-03-27T08:45:51.943Z,44.29
2017-03-27T08:46:32.450Z,44.29
2017-03-27T08:47:12.990Z,59.66
2017-03-27T08:47:53.412Z,65.23
2017-03-27T08:48:33.996Z,68.38
2017-03-27T08:49:18.132Z,72.14
2017-03-27T08:51:08.834Z,54.15
2017-03-27T08:51:47.163Z,49.76
2017-03-27T08:52:27.599Z,50.04
2017-03-27T08:53:08.108Z,46.03
2017-03-27T08:53:48.642Z,51.45
2017-03-27T08:54:29.235Z,47.06
2017-03-27T08:55:09.917Z,43.53
2017-03-27T08:55:50.447Z,42.1
2017-03-27T08:56:30.953Z,41.33
2017-03-27T08:57:11.453Z,42.29
2017-03-27T08:57:51.985Z,43.26
2017-03-27T08:58:32.427Z,41.43
2017-03-27T08:59:12.948Z,40.57
2017-03-27T08:59:53.372Z,40.19
2017-03-27T09:00:33.850Z,41.24
2017-03-27T09:01:14.389Z,41.62
2017-03-27T09:01:54.996Z,41.05
2017-03-27T09:02:35.437Z,40.47
2017-03-27T09:03:15.904Z,41.33